sensor_id;sensor_type;location;lat;lon;timestamp;temperature;humidity
41876;DHT22;27555;50.808;4.402;2023-06-10T00:01:42;23.30;85.40
41876;DHT22;27555;50.808;4.402;2023-06-10T00:04:08;23.20;86.00
41876;DHT22;27555;50.808;4.402;2023-06-10T00:06:34;23.20;86.10
41876;DHT22;27555;50.808;4.402;2023-06-10T00:09:03;23.10;85.90
41876;DHT22;27555;50.808;4.402;2023-06-10T00:11:31;23.00;86.30
41876;DHT22;27555;50.808;4.402;2023-06-10T00:13:56;22.80;86.80
41876;DHT22;27555;50.808;4.402;2023-06-10T00:16:22;22.90;87.10
41876;DHT22;27555;50.808;4.402;2023-06-10T00:18:48;22.80;86.60
41876;DHT22;27555;50.808;4.402;2023-06-10T00:21:14;22.80;86.90
41876;DHT22;27555;50.808;4.402;2023-06-10T00:23:39;23.00;86.30
41876;DHT22;27555;50.808;4.402;2023-06-10T00:26:06;23.00;86.20
41876;DHT22;27555;50.808;4.402;2023-06-10T00:28:32;22.90;86.40
41876;DHT22;27555;50.808;4.402;2023-06-10T00:30:58;22.80;86.80
41876;DHT22;27555;50.808;4.402;2023-06-10T00:33:23;22.80;86.70
41876;DHT22;27555;50.808;4.402;2023-06-10T00:35:49;22.80;86.90
41876;DHT22;27555;50.808;4.402;2023-06-10T00:38:14;22.80;87.00
41876;DHT22;27555;50.808;4.402;2023-06-10T00:40:41;22.70;87.30
41876;DHT22;27555;50.808;4.402;2023-06-10T00:43:07;22.50;87.40
41876;DHT22;27555;50.808;4.402;2023-06-10T00:45:33;22.50;88.10
41876;DHT22;27555;50.808;4.402;2023-06-10T00:48:00;22.50;88.20
41876;DHT22;27555;50.808;4.402;2023-06-10T00:50:26;22.40;87.60
41876;DHT22;27555;50.808;4.402;2023-06-10T00:52:52;22.50;88.30
41876;DHT22;27555;50.808;4.402;2023-06-10T00:55:18;22.60;89.10
41876;DHT22;27555;50.808;4.402;2023-06-10T00:57:45;22.50;87.90
41876;DHT22;27555;50.808;4.402;2023-06-10T01:00:11;22.50;88.20
41876;DHT22;27555;50.808;4.402;2023-06-10T01:02:38;22.50;87.80
41876;DHT22;27555;50.808;4.402;2023-06-10T01:05:03;22.60;87.20
41876;DHT22;27555;50.808;4.402;2023-06-10T01:10:12;22.50;88.00
41876;DHT22;27555;50.808;4.402;2023-06-10T01:12:45;22.50;88.60
41876;DHT22;27555;50.808;4.402;2023-06-10T01:15:17;22.50;88.30
41876;DHT22;27555;50.808;4.402;2023-06-10T01:17:55;22.40;88.50
41876;DHT22;27555;50.808;4.402;2023-06-10T01:20:23;22.60;88.80
41876;DHT22;27555;50.808;4.402;2023-06-10T01:22:49;22.60;88.90
41876;DHT22;27555;50.808;4.402;2023-06-10T01:25:16;22.40;89.10
41876;DHT22;27555;50.808;4.402;2023-06-10T01:27:44;22.50;89.80
41876;DHT22;27555;50.808;4.402;2023-06-10T01:30:15;22.40;89.60
41876;DHT22;27555;50.808;4.402;2023-06-10T01:32:45;22.40;89.60
41876;DHT22;27555;50.808;4.402;2023-06-10T01:35:14;22.30;89.70
41876;DHT22;27555;50.808;4.402;2023-06-10T01:37:40;22.20;90.00
41876;DHT22;27555;50.808;4.402;2023-06-10T01:40:08;22.20;90.00
41876;DHT22;27555;50.808;4.402;2023-06-10T01:42:35;22.10;90.10
41876;DHT22;27555;50.808;4.402;2023-06-10T01:45:01;22.10;90.20
41876;DHT22;27555;50.808;4.402;2023-06-10T01:47:27;22.10;90.30
41876;DHT22;27555;50.808;4.402;2023-06-10T01:49:52;22.10;90.30
41876;DHT22;27555;50.808;4.402;2023-06-10T01:52:18;22.10;90.40
41876;DHT22;27555;50.808;4.402;2023-06-10T01:54:43;22.10;90.30
41876;DHT22;27555;50.808;4.402;2023-06-10T01:57:09;22.00;90.40
41876;DHT22;27555;50.808;4.402;2023-06-10T01:59:35;22.00;90.40
41876;DHT22;27555;50.808;4.402;2023-06-10T02:02:03;21.90;90.50
41876;DHT22;27555;50.808;4.402;2023-06-10T02:04:29;21.90;90.60
41876;DHT22;27555;50.808;4.402;2023-06-10T02:06:54;21.80;90.70
41876;DHT22;27555;50.808;4.402;2023-06-10T02:09:21;21.70;90.80
41876;DHT22;27555;50.808;4.402;2023-06-10T02:11:48;21.70;90.80
41876;DHT22;27555;50.808;4.402;2023-06-10T02:14:14;21.60;90.90
41876;DHT22;27555;50.808;4.402;2023-06-10T02:16:40;21.60;90.90
41876;DHT22;27555;50.808;4.402;2023-06-10T02:19:05;21.60;91.00
41876;DHT22;27555;50.808;4.402;2023-06-10T02:21:32;21.60;91.00
41876;DHT22;27555;50.808;4.402;2023-06-10T02:23:59;21.60;91.00
41876;DHT22;27555;50.808;4.402;2023-06-10T02:26:25;21.60;91.00
41876;DHT22;27555;50.808;4.402;2023-06-10T02:28:51;21.50;91.20
41876;DHT22;27555;50.808;4.402;2023-06-10T02:31:17;21.50;91.20
41876;DHT22;27555;50.808;4.402;2023-06-10T02:33:43;21.30;91.30
41876;DHT22;27555;50.808;4.402;2023-06-10T02:36:10;21.20;91.40
41876;DHT22;27555;50.808;4.402;2023-06-10T02:38:39;21.20;91.60
41876;DHT22;27555;50.808;4.402;2023-06-10T02:41:05;21.20;91.70
41876;DHT22;27555;50.808;4.402;2023-06-10T02:43:31;21.10;91.80
41876;DHT22;27555;50.808;4.402;2023-06-10T02:45:57;21.20;91.70
41876;DHT22;27555;50.808;4.402;2023-06-10T02:48:25;21.20;91.60
41876;DHT22;27555;50.808;4.402;2023-06-10T02:50:52;21.20;91.60
41876;DHT22;27555;50.808;4.402;2023-06-10T02:53:17;21.10;91.70
41876;DHT22;27555;50.808;4.402;2023-06-10T02:55:43;21.10;91.80
41876;DHT22;27555;50.808;4.402;2023-06-10T02:58:09;20.90;91.90
41876;DHT22;27555;50.808;4.402;2023-06-10T03:00:35;20.90;92.00
41876;DHT22;27555;50.808;4.402;2023-06-10T03:03:03;20.90;92.10
41876;DHT22;27555;50.808;4.402;2023-06-10T03:05:29;20.90;92.10
41876;DHT22;27555;50.808;4.402;2023-06-10T03:07:55;20.70;92.30
41876;DHT22;27555;50.808;4.402;2023-06-10T03:10:20;20.60;92.40
41876;DHT22;27555;50.808;4.402;2023-06-10T03:12:46;20.60;92.40
41876;DHT22;27555;50.808;4.402;2023-06-10T03:15:12;20.60;92.40
41876;DHT22;27555;50.808;4.402;2023-06-10T03:17:37;20.60;92.50
41876;DHT22;27555;50.808;4.402;2023-06-10T03:20:03;20.70;92.60
41876;DHT22;27555;50.808;4.402;2023-06-10T03:22:33;20.70;92.60
41876;DHT22;27555;50.808;4.402;2023-06-10T03:24:58;20.60;92.70
41876;DHT22;27555;50.808;4.402;2023-06-10T03:27:25;20.60;92.80
41876;DHT22;27555;50.808;4.402;2023-06-10T03:29:51;20.60;92.80
41876;DHT22;27555;50.808;4.402;2023-06-10T03:32:16;20.70;92.70
41876;DHT22;27555;50.808;4.402;2023-06-10T03:34:43;20.60;92.80
41876;DHT22;27555;50.808;4.402;2023-06-10T03:37:10;20.60;92.80
41876;DHT22;27555;50.808;4.402;2023-06-10T03:39:36;20.60;93.00
41876;DHT22;27555;50.808;4.402;2023-06-10T03:42:01;20.50;93.00
41876;DHT22;27555;50.808;4.402;2023-06-10T03:44:27;20.40;93.10
41876;DHT22;27555;50.808;4.402;2023-06-10T03:46:54;20.40;93.10
41876;DHT22;27555;50.808;4.402;2023-06-10T03:49:20;20.40;93.20
41876;DHT22;27555;50.808;4.402;2023-06-10T03:51:46;20.40;93.20
41876;DHT22;27555;50.808;4.402;2023-06-10T03:54:11;20.50;93.20
41876;DHT22;27555;50.808;4.402;2023-06-10T03:56:37;20.50;93.20
41876;DHT22;27555;50.808;4.402;2023-06-10T03:59:03;20.50;93.20
41876;DHT22;27555;50.808;4.402;2023-06-10T04:01:28;20.60;93.20
41876;DHT22;27555;50.808;4.402;2023-06-10T04:03:54;20.60;93.10
41876;DHT22;27555;50.808;4.402;2023-06-10T04:06:20;20.50;93.10
41876;DHT22;27555;50.808;4.402;2023-06-10T04:08:48;20.60;93.10
41876;DHT22;27555;50.808;4.402;2023-06-10T04:11:13;20.80;92.90
41876;DHT22;27555;50.808;4.402;2023-06-10T04:13:39;20.90;92.80
41876;DHT22;27555;50.808;4.402;2023-06-10T04:16:05;20.80;92.90
41876;DHT22;27555;50.808;4.402;2023-06-10T04:18:30;20.80;93.00
41876;DHT22;27555;50.808;4.402;2023-06-10T04:20:56;20.70;93.00
41876;DHT22;27555;50.808;4.402;2023-06-10T04:23:22;20.70;92.80
41876;DHT22;27555;50.808;4.402;2023-06-10T04:25:48;20.60;92.30
41876;DHT22;27555;50.808;4.402;2023-06-10T04:28:13;20.70;92.50
41876;DHT22;27555;50.808;4.402;2023-06-10T04:30:39;20.80;92.10
41876;DHT22;27555;50.808;4.402;2023-06-10T04:33:04;20.80;92.10
41876;DHT22;27555;50.808;4.402;2023-06-10T04:35:32;20.90;91.90
41876;DHT22;27555;50.808;4.402;2023-06-10T04:37:57;21.00;92.10
41876;DHT22;27555;50.808;4.402;2023-06-10T04:40:23;21.00;92.10
41876;DHT22;27555;50.808;4.402;2023-06-10T04:42:49;21.10;92.10
41876;DHT22;27555;50.808;4.402;2023-06-10T04:45:15;21.20;91.90
41876;DHT22;27555;50.808;4.402;2023-06-10T04:47:40;21.30;91.80
41876;DHT22;27555;50.808;4.402;2023-06-10T04:50:06;21.20;91.80
41876;DHT22;27555;50.808;4.402;2023-06-10T04:52:32;21.20;91.50
41876;DHT22;27555;50.808;4.402;2023-06-10T04:54:59;21.00;91.70
41876;DHT22;27555;50.808;4.402;2023-06-10T04:57:24;20.90;91.90
41876;DHT22;27555;50.808;4.402;2023-06-10T04:59:50;20.90;92.00
41876;DHT22;27555;50.808;4.402;2023-06-10T05:02:15;21.00;91.90
41876;DHT22;27555;50.808;4.402;2023-06-10T05:04:41;21.10;91.80
41876;DHT22;27555;50.808;4.402;2023-06-10T05:07:07;21.30;91.70
41876;DHT22;27555;50.808;4.402;2023-06-10T05:09:32;21.40;91.40
41876;DHT22;27555;50.808;4.402;2023-06-10T05:11:58;21.60;91.20
41876;DHT22;27555;50.808;4.402;2023-06-10T05:14:24;21.70;91.30
41876;DHT22;27555;50.808;4.402;2023-06-10T05:16:50;21.70;91.20
41876;DHT22;27555;50.808;4.402;2023-06-10T05:19:15;21.60;91.10
41876;DHT22;27555;50.808;4.402;2023-06-10T05:21:45;21.60;91.20
41876;DHT22;27555;50.808;4.402;2023-06-10T05:24:11;21.70;91.10
41876;DHT22;27555;50.808;4.402;2023-06-10T05:26:36;21.80;91.10
41876;DHT22;27555;50.808;4.402;2023-06-10T05:29:04;22.00;90.80
41876;DHT22;27555;50.808;4.402;2023-06-10T05:31:30;22.10;90.70
41876;DHT22;27555;50.808;4.402;2023-06-10T05:33:55;22.10;90.80
41876;DHT22;27555;50.808;4.402;2023-06-10T05:36:21;22.10;91.00
41876;DHT22;27555;50.808;4.402;2023-06-10T05:38:47;22.20;90.70
41876;DHT22;27555;50.808;4.402;2023-06-10T05:41:12;22.20;90.80
41876;DHT22;27555;50.808;4.402;2023-06-10T05:43:38;21.90;91.20
41876;DHT22;27555;50.808;4.402;2023-06-10T05:46:04;21.80;91.50
41876;DHT22;27555;50.808;4.402;2023-06-10T05:48:29;21.60;91.70
41876;DHT22;27555;50.808;4.402;2023-06-10T05:50:55;21.60;91.90
41876;DHT22;27555;50.808;4.402;2023-06-10T05:53:20;21.60;91.90
41876;DHT22;27555;50.808;4.402;2023-06-10T05:55:46;21.60;91.80
41876;DHT22;27555;50.808;4.402;2023-06-10T05:58:13;21.70;91.70
41876;DHT22;27555;50.808;4.402;2023-06-10T06:00:39;21.80;91.50
41876;DHT22;27555;50.808;4.402;2023-06-10T06:03:08;22.10;91.30
41876;DHT22;27555;50.808;4.402;2023-06-10T06:05:34;22.30;91.10
41876;DHT22;27555;50.808;4.402;2023-06-10T06:08:10;22.50;90.90
41876;DHT22;27555;50.808;4.402;2023-06-10T06:10:36;22.60;90.80
41876;DHT22;27555;50.808;4.402;2023-06-10T06:13:02;22.50;90.90
41876;DHT22;27555;50.808;4.402;2023-06-10T06:15:27;22.50;91.00
41876;DHT22;27555;50.808;4.402;2023-06-10T06:17:53;22.50;91.00
41876;DHT22;27555;50.808;4.402;2023-06-10T06:20:20;22.50;91.00
41876;DHT22;27555;50.808;4.402;2023-06-10T06:22:46;22.70;90.90
41876;DHT22;27555;50.808;4.402;2023-06-10T06:25:11;22.80;90.80
41876;DHT22;27555;50.808;4.402;2023-06-10T06:27:37;22.90;90.80
41876;DHT22;27555;50.808;4.402;2023-06-10T06:30:03;23.00;90.50
41876;DHT22;27555;50.808;4.402;2023-06-10T06:32:30;23.30;90.30
41876;DHT22;27555;50.808;4.402;2023-06-10T06:34:56;23.50;90.20
41876;DHT22;27555;50.808;4.402;2023-06-10T06:37:23;23.80;89.20
41876;DHT22;27555;50.808;4.402;2023-06-10T06:39:52;24.40;87.60
41876;DHT22;27555;50.808;4.402;2023-06-10T06:42:19;25.40;85.90
41876;DHT22;27555;50.808;4.402;2023-06-10T06:44:45;26.50;83.00
41876;DHT22;27555;50.808;4.402;2023-06-10T06:47:11;27.50;81.70
41876;DHT22;27555;50.808;4.402;2023-06-10T06:49:37;27.90;80.20
41876;DHT22;27555;50.808;4.402;2023-06-10T06:52:03;28.70;78.90
41876;DHT22;27555;50.808;4.402;2023-06-10T06:54:29;29.20;78.30
41876;DHT22;27555;50.808;4.402;2023-06-10T06:56:55;29.50;77.40
41876;DHT22;27555;50.808;4.402;2023-06-10T06:59:20;29.70;77.60
41876;DHT22;27555;50.808;4.402;2023-06-10T07:01:46;30.30;76.00
41876;DHT22;27555;50.808;4.402;2023-06-10T07:04:14;30.30;75.60
41876;DHT22;27555;50.808;4.402;2023-06-10T07:06:40;30.50;75.70
41876;DHT22;27555;50.808;4.402;2023-06-10T07:09:07;31.10;75.20
41876;DHT22;27555;50.808;4.402;2023-06-10T07:11:32;31.00;74.30
41876;DHT22;27555;50.808;4.402;2023-06-10T07:13:58;30.00;75.50
41876;DHT22;27555;50.808;4.402;2023-06-10T07:16:24;29.90;76.50
41876;DHT22;27555;50.808;4.402;2023-06-10T07:18:49;30.80;75.70
41876;DHT22;27555;50.808;4.402;2023-06-10T07:21:15;31.40;73.80
41876;DHT22;27555;50.808;4.402;2023-06-10T07:23:43;31.80;73.20
41876;DHT22;27555;50.808;4.402;2023-06-10T07:26:10;31.60;73.40
41876;DHT22;27555;50.808;4.402;2023-06-10T07:28:40;30.90;73.30
41876;DHT22;27555;50.808;4.402;2023-06-10T07:31:06;31.20;74.30
41876;DHT22;27555;50.808;4.402;2023-06-10T07:33:31;31.20;74.20
41876;DHT22;27555;50.808;4.402;2023-06-10T07:35:57;31.70;73.60
41876;DHT22;27555;50.808;4.402;2023-06-10T07:38:23;32.60;72.70
41876;DHT22;27555;50.808;4.402;2023-06-10T07:40:48;33.20;71.60
41876;DHT22;27555;50.808;4.402;2023-06-10T07:43:14;33.50;71.50
41876;DHT22;27555;50.808;4.402;2023-06-10T07:45:40;33.40;70.80
41876;DHT22;27555;50.808;4.402;2023-06-10T07:48:05;33.70;70.90
41876;DHT22;27555;50.808;4.402;2023-06-10T07:50:31;33.60;70.70
41876;DHT22;27555;50.808;4.402;2023-06-10T07:52:56;34.30;70.10
41876;DHT22;27555;50.808;4.402;2023-06-10T07:55:22;34.50;69.80
41876;DHT22;27555;50.808;4.402;2023-06-10T07:57:48;34.40;69.50
41876;DHT22;27555;50.808;4.402;2023-06-10T08:00:14;33.70;70.00
41876;DHT22;27555;50.808;4.402;2023-06-10T08:02:39;33.70;70.10
41876;DHT22;27555;50.808;4.402;2023-06-10T08:05:05;33.60;70.10
41876;DHT22;27555;50.808;4.402;2023-06-10T08:07:31;34.00;69.60
41876;DHT22;27555;50.808;4.402;2023-06-10T08:09:57;34.10;69.40
41876;DHT22;27555;50.808;4.402;2023-06-10T08:12:22;33.50;69.40
41876;DHT22;27555;50.808;4.402;2023-06-10T08:14:48;33.80;69.70
41876;DHT22;27555;50.808;4.402;2023-06-10T08:17:14;34.20;69.60
41876;DHT22;27555;50.808;4.402;2023-06-10T08:19:39;34.20;69.60
41876;DHT22;27555;50.808;4.402;2023-06-10T08:22:05;34.60;69.80
41876;DHT22;27555;50.808;4.402;2023-06-10T08:24:30;33.80;70.00
41876;DHT22;27555;50.808;4.402;2023-06-10T08:26:56;33.90;69.80
41876;DHT22;27555;50.808;4.402;2023-06-10T08:29:23;34.50;69.80
41876;DHT22;27555;50.808;4.402;2023-06-10T08:31:49;34.90;69.50
41876;DHT22;27555;50.808;4.402;2023-06-10T08:34:14;34.80;69.20
41876;DHT22;27555;50.808;4.402;2023-06-10T08:36:40;35.20;69.10
41876;DHT22;27555;50.808;4.402;2023-06-10T08:39:06;35.20;68.60
41876;DHT22;27555;50.808;4.402;2023-06-10T08:41:35;34.30;69.20
41876;DHT22;27555;50.808;4.402;2023-06-10T08:44:10;34.60;69.10
41876;DHT22;27555;50.808;4.402;2023-06-10T08:46:37;35.30;69.00
41876;DHT22;27555;50.808;4.402;2023-06-10T08:49:05;35.10;68.20
41876;DHT22;27555;50.808;4.402;2023-06-10T08:51:35;35.70;67.80
41876;DHT22;27555;50.808;4.402;2023-06-10T08:54:10;36.10;67.30
41876;DHT22;27555;50.808;4.402;2023-06-10T08:56:39;36.80;67.10
41876;DHT22;27555;50.808;4.402;2023-06-10T08:59:05;37.00;66.90
41876;DHT22;27555;50.808;4.402;2023-06-10T09:01:32;37.10;65.80
41876;DHT22;27555;50.808;4.402;2023-06-10T09:03:59;37.20;65.80
41876;DHT22;27555;50.808;4.402;2023-06-10T09:06:25;37.00;66.50
41876;DHT22;27555;50.808;4.402;2023-06-10T09:08:51;36.90;66.70
41876;DHT22;27555;50.808;4.402;2023-06-10T09:11:17;36.50;66.40
41876;DHT22;27555;50.808;4.402;2023-06-10T09:13:43;36.10;66.80
41876;DHT22;27555;50.808;4.402;2023-06-10T09:16:08;36.00;67.10
41876;DHT22;27555;50.808;4.402;2023-06-10T09:18:37;36.00;66.90
41876;DHT22;27555;50.808;4.402;2023-06-10T09:21:03;36.40;66.90
41876;DHT22;27555;50.808;4.402;2023-06-10T09:23:29;36.70;67.00
41876;DHT22;27555;50.808;4.402;2023-06-10T09:25:58;36.80;67.00
41876;DHT22;27555;50.808;4.402;2023-06-10T09:28:24;36.80;66.50
41876;DHT22;27555;50.808;4.402;2023-06-10T09:30:50;37.40;66.10
41876;DHT22;27555;50.808;4.402;2023-06-10T09:33:26;38.00;65.30
41876;DHT22;27555;50.808;4.402;2023-06-10T09:35:52;38.50;64.80
41876;DHT22;27555;50.808;4.402;2023-06-10T09:38:22;37.50;65.10
41876;DHT22;27555;50.808;4.402;2023-06-10T09:40:51;38.00;64.60
41876;DHT22;27555;50.808;4.402;2023-06-10T09:43:17;38.50;64.20
41876;DHT22;27555;50.808;4.402;2023-06-10T09:45:43;38.80;64.10
41876;DHT22;27555;50.808;4.402;2023-06-10T09:48:09;38.30;64.80
41876;DHT22;27555;50.808;4.402;2023-06-10T09:50:36;37.50;64.00
41876;DHT22;27555;50.808;4.402;2023-06-10T09:53:06;37.50;64.40
41876;DHT22;27555;50.808;4.402;2023-06-10T09:55:33;37.70;63.80
41876;DHT22;27555;50.808;4.402;2023-06-10T09:57:58;37.80;63.70
41876;DHT22;27555;50.808;4.402;2023-06-10T10:00:24;37.60;64.40
41876;DHT22;27555;50.808;4.402;2023-06-10T10:02:52;37.90;63.40
41876;DHT22;27555;50.808;4.402;2023-06-10T10:05:21;38.30;63.70
41876;DHT22;27555;50.808;4.402;2023-06-10T10:07:47;38.60;63.50
41876;DHT22;27555;50.808;4.402;2023-06-10T10:10:19;38.90;62.50
41876;DHT22;27555;50.808;4.402;2023-06-10T10:12:47;38.30;62.30
41876;DHT22;27555;50.808;4.402;2023-06-10T10:15:13;38.30;62.30
41876;DHT22;27555;50.808;4.402;2023-06-10T10:17:52;38.20;61.70
41876;DHT22;27555;50.808;4.402;2023-06-10T10:20:21;38.40;62.30
41876;DHT22;27555;50.808;4.402;2023-06-10T10:22:50;38.40;61.80
41876;DHT22;27555;50.808;4.402;2023-06-10T10:25:28;38.80;61.90
41876;DHT22;27555;50.808;4.402;2023-06-10T10:28:11;38.30;61.50
41876;DHT22;27555;50.808;4.402;2023-06-10T10:30:41;38.60;60.80
41876;DHT22;27555;50.808;4.402;2023-06-10T10:33:18;39.00;60.00
41876;DHT22;27555;50.808;4.402;2023-06-10T10:35:46;39.40;60.20
41876;DHT22;27555;50.808;4.402;2023-06-10T10:38:12;39.40;59.30
41876;DHT22;27555;50.808;4.402;2023-06-10T10:40:38;39.10;60.40
41876;DHT22;27555;50.808;4.402;2023-06-10T10:43:04;39.00;59.90
41876;DHT22;27555;50.808;4.402;2023-06-10T10:45:33;38.40;59.20
41876;DHT22;27555;50.808;4.402;2023-06-10T10:48:05;38.50;60.00
41876;DHT22;27555;50.808;4.402;2023-06-10T10:50:32;38.60;58.70
41876;DHT22;27555;50.808;4.402;2023-06-10T10:53:02;38.90;59.40
41876;DHT22;27555;50.808;4.402;2023-06-10T10:55:28;39.00;59.40
41876;DHT22;27555;50.808;4.402;2023-06-10T10:57:58;38.70;59.20
41876;DHT22;27555;50.808;4.402;2023-06-10T11:00:43;38.10;59.10
41876;DHT22;27555;50.808;4.402;2023-06-10T11:03:14;37.80;59.00
41876;DHT22;27555;50.808;4.402;2023-06-10T11:05:46;37.30;59.40
41876;DHT22;27555;50.808;4.402;2023-06-10T11:16:39;37.70;59.80
41876;DHT22;27555;50.808;4.402;2023-06-10T11:19:05;37.60;60.70
41876;DHT22;27555;50.808;4.402;2023-06-10T11:21:31;37.50;60.40
41876;DHT22;27555;50.808;4.402;2023-06-10T11:23:58;37.60;59.60
41876;DHT22;27555;50.808;4.402;2023-06-10T11:31:29;37.90;57.00
41876;DHT22;27555;50.808;4.402;2023-06-10T11:33:57;38.60;57.10
41876;DHT22;27555;50.808;4.402;2023-06-10T11:36:26;38.90;58.20
41876;DHT22;27555;50.808;4.402;2023-06-10T11:38:57;38.70;57.20
41876;DHT22;27555;50.808;4.402;2023-06-10T11:41:27;38.70;57.40
41876;DHT22;27555;50.808;4.402;2023-06-10T11:43:54;38.20;58.00
41876;DHT22;27555;50.808;4.402;2023-06-10T11:46:23;37.60;58.40
41876;DHT22;27555;50.808;4.402;2023-06-10T11:48:56;37.50;58.80
41876;DHT22;27555;50.808;4.402;2023-06-10T11:51:25;37.00;57.00
41876;DHT22;27555;50.808;4.402;2023-06-10T11:53:52;37.10;57.60
41876;DHT22;27555;50.808;4.402;2023-06-10T12:01:25;36.40;59.20
41876;DHT22;27555;50.808;4.402;2023-06-10T12:04:05;36.20;59.10
41876;DHT22;27555;50.808;4.402;2023-06-10T12:06:54;35.70;59.90
41876;DHT22;27555;50.808;4.402;2023-06-10T12:09:22;34.50;60.80
41876;DHT22;27555;50.808;4.402;2023-06-10T12:11:59;34.70;60.40
41876;DHT22;27555;50.808;4.402;2023-06-10T12:14:50;34.40;60.90
41876;DHT22;27555;50.808;4.402;2023-06-10T12:17:17;34.00;61.40
41876;DHT22;27555;50.808;4.402;2023-06-10T12:19:42;33.60;61.50
41876;DHT22;27555;50.808;4.402;2023-06-10T12:22:08;33.50;62.00
41876;DHT22;27555;50.808;4.402;2023-06-10T12:24:59;33.70;62.10
41876;DHT22;27555;50.808;4.402;2023-06-10T12:27:29;33.60;62.00
41876;DHT22;27555;50.808;4.402;2023-06-10T12:29:56;33.40;62.20
41876;DHT22;27555;50.808;4.402;2023-06-10T12:32:39;33.10;62.50
41876;DHT22;27555;50.808;4.402;2023-06-10T12:35:06;33.00;62.80
41876;DHT22;27555;50.808;4.402;2023-06-10T12:37:32;32.90;63.20
41876;DHT22;27555;50.808;4.402;2023-06-10T12:40:03;32.90;63.10
41876;DHT22;27555;50.808;4.402;2023-06-10T12:42:29;32.90;62.80
41876;DHT22;27555;50.808;4.402;2023-06-10T12:44:56;32.90;63.10
41876;DHT22;27555;50.808;4.402;2023-06-10T12:47:32;32.70;62.60
41876;DHT22;27555;50.808;4.402;2023-06-10T12:49:58;32.70;63.10
41876;DHT22;27555;50.808;4.402;2023-06-10T12:52:25;32.70;63.70
41876;DHT22;27555;50.808;4.402;2023-06-10T12:54:50;32.90;62.70
41876;DHT22;27555;50.808;4.402;2023-06-10T12:57:17;33.00;63.20
41876;DHT22;27555;50.808;4.402;2023-06-10T12:59:43;33.10;62.90
41876;DHT22;27555;50.808;4.402;2023-06-10T13:02:15;32.90;62.70
41876;DHT22;27555;50.808;4.402;2023-06-10T13:04:43;32.80;62.80
41876;DHT22;27555;50.808;4.402;2023-06-10T13:07:09;32.60;62.80
41876;DHT22;27555;50.808;4.402;2023-06-10T13:09:36;32.80;63.70
41876;DHT22;27555;50.808;4.402;2023-06-10T13:12:01;32.80;63.80
41876;DHT22;27555;50.808;4.402;2023-06-10T13:14:27;32.70;63.60
41876;DHT22;27555;50.808;4.402;2023-06-10T13:16:54;32.90;63.20
41876;DHT22;27555;50.808;4.402;2023-06-10T13:19:20;32.80;62.90
41876;DHT22;27555;50.808;4.402;2023-06-10T13:21:47;32.60;63.10
41876;DHT22;27555;50.808;4.402;2023-06-10T13:24:13;32.70;63.10
41876;DHT22;27555;50.808;4.402;2023-06-10T13:26:38;32.70;63.40
41876;DHT22;27555;50.808;4.402;2023-06-10T13:29:04;32.80;63.30
41876;DHT22;27555;50.808;4.402;2023-06-10T13:31:30;33.00;62.80
41876;DHT22;27555;50.808;4.402;2023-06-10T13:33:57;33.00;62.30
41876;DHT22;27555;50.808;4.402;2023-06-10T13:36:23;32.80;62.40
41876;DHT22;27555;50.808;4.402;2023-06-10T13:38:49;32.80;63.00
41876;DHT22;27555;50.808;4.402;2023-06-10T13:41:15;32.50;63.60
41876;DHT22;27555;50.808;4.402;2023-06-10T13:43:41;32.50;63.50
41876;DHT22;27555;50.808;4.402;2023-06-10T13:46:06;32.70;62.80
41876;DHT22;27555;50.808;4.402;2023-06-10T13:48:32;32.70;63.70
41876;DHT22;27555;50.808;4.402;2023-06-10T13:50:57;32.50;62.50
41876;DHT22;27555;50.808;4.402;2023-06-10T13:53:24;32.50;62.40
41876;DHT22;27555;50.808;4.402;2023-06-10T13:55:50;32.40;62.60
41876;DHT22;27555;50.808;4.402;2023-06-10T13:58:24;32.60;63.00
41876;DHT22;27555;50.808;4.402;2023-06-10T14:00:50;32.60;62.30
41876;DHT22;27555;50.808;4.402;2023-06-10T14:03:16;32.40;62.40
41876;DHT22;27555;50.808;4.402;2023-06-10T14:05:41;32.10;62.80
41876;DHT22;27555;50.808;4.402;2023-06-10T14:08:07;32.00;62.60
41876;DHT22;27555;50.808;4.402;2023-06-10T14:10:32;32.10;63.00
41876;DHT22;27555;50.808;4.402;2023-06-10T14:12:58;32.10;63.30
41876;DHT22;27555;50.808;4.402;2023-06-10T14:15:24;32.10;62.90
41876;DHT22;27555;50.808;4.402;2023-06-10T14:17:49;32.30;62.90
41876;DHT22;27555;50.808;4.402;2023-06-10T14:20:15;32.20;62.70
41876;DHT22;27555;50.808;4.402;2023-06-10T14:22:41;32.10;62.70
41876;DHT22;27555;50.808;4.402;2023-06-10T14:25:07;32.30;63.40
41876;DHT22;27555;50.808;4.402;2023-06-10T14:27:32;32.40;63.10
41876;DHT22;27555;50.808;4.402;2023-06-10T14:29:58;32.60;62.10
41876;DHT22;27555;50.808;4.402;2023-06-10T14:32:24;32.60;62.30
41876;DHT22;27555;50.808;4.402;2023-06-10T14:34:49;32.40;62.50
41876;DHT22;27555;50.808;4.402;2023-06-10T14:37:15;32.10;62.90
41876;DHT22;27555;50.808;4.402;2023-06-10T14:39:41;32.10;62.90
41876;DHT22;27555;50.808;4.402;2023-06-10T14:42:07;32.30;62.80
41876;DHT22;27555;50.808;4.402;2023-06-10T14:44:32;32.40;62.50
41876;DHT22;27555;50.808;4.402;2023-06-10T14:46:58;32.50;63.00
41876;DHT22;27555;50.808;4.402;2023-06-10T14:49:23;32.60;63.50
41876;DHT22;27555;50.808;4.402;2023-06-10T14:51:49;32.40;61.40
41876;DHT22;27555;50.808;4.402;2023-06-10T14:54:15;32.50;61.60
41876;DHT22;27555;50.808;4.402;2023-06-10T14:56:41;32.60;62.30
41876;DHT22;27555;50.808;4.402;2023-06-10T14:59:07;32.60;62.30
41876;DHT22;27555;50.808;4.402;2023-06-10T15:01:32;32.50;62.20
41876;DHT22;27555;50.808;4.402;2023-06-10T15:03:58;32.60;62.00
41876;DHT22;27555;50.808;4.402;2023-06-10T15:06:23;32.60;61.10
41876;DHT22;27555;50.808;4.402;2023-06-10T15:08:49;32.60;62.00
41876;DHT22;27555;50.808;4.402;2023-06-10T15:11:15;32.40;62.40
41876;DHT22;27555;50.808;4.402;2023-06-10T15:13:41;32.40;62.90
41876;DHT22;27555;50.808;4.402;2023-06-10T15:16:07;32.60;62.20
41876;DHT22;27555;50.808;4.402;2023-06-10T15:18:33;32.60;62.50
41876;DHT22;27555;50.808;4.402;2023-06-10T15:20:58;32.40;62.80
41876;DHT22;27555;50.808;4.402;2023-06-10T15:23:24;32.20;62.70
41876;DHT22;27555;50.808;4.402;2023-06-10T15:25:50;32.20;62.50
41876;DHT22;27555;50.808;4.402;2023-06-10T15:28:15;32.00;62.80
41876;DHT22;27555;50.808;4.402;2023-06-10T15:30:41;32.10;62.30
41876;DHT22;27555;50.808;4.402;2023-06-10T15:33:07;32.10;62.40
41876;DHT22;27555;50.808;4.402;2023-06-10T15:35:33;32.00;63.00
41876;DHT22;27555;50.808;4.402;2023-06-10T15:37:59;31.80;62.90
41876;DHT22;27555;50.808;4.402;2023-06-10T15:40:24;32.00;63.00
41876;DHT22;27555;50.808;4.402;2023-06-10T15:42:51;31.90;63.30
41876;DHT22;27555;50.808;4.402;2023-06-10T15:45:16;32.00;63.40
41876;DHT22;27555;50.808;4.402;2023-06-10T15:47:42;32.10;63.10
41876;DHT22;27555;50.808;4.402;2023-06-10T15:50:08;31.90;63.10